Time;durP1;ratioP1;P1;durP2;ratioP2;P2;SDS_P1;SDS_P2;PMS_P1;PMS_P2;Temp;Humidity;BMP_temperature;BMP_pressure;BME280_temperature;BME280_humidity;BME280_pressure;Samples;Min_cycle;Max_cycle;Signal;HPM_P1;HPM_P2
2023/11/23 00:01:44;;;;;;;71.22;35.75;;;7.50;99.90;;;;;;4984571;28;20025;-73
2023/11/23 00:04:10;;;;;;;71.68;35.17;;;7.50;99.90;;;;;;4965246;28;20053;-79
2023/11/23 00:06:37;;;;;;;72.85;35.70;;;7.50;99.90;;;;;;4969694;28;20463;-80
2023/11/23 00:09:06;;;;;;;83.15;40.83;;;7.50;99.90;;;;;;4966967;28;20064;-80
2023/11/23 00:11:32;;;;;;;80.95;39.90;;;7.50;99.90;;;;;;4977734;28;20135;-81
2023/11/23 00:13:59;;;;;;;78.88;40.08;;;7.50;99.90;;;;;;4970335;28;20036;-80
2023/11/23 00:16:25;;;;;;;72.50;35.78;;;7.50;99.90;;;;;;4969474;28;20045;-77
2023/11/23 00:18:52;;;;;;;74.03;36.63;;;7.50;99.90;;;;;;4970107;28;20042;-80
2023/11/23 00:21:18;;;;;;;77.50;39.15;;;7.50;99.90;;;;;;4967460;28;20042;-75
2023/11/23 00:23:44;;;;;;;77.97;40.50;;;7.50;99.90;;;;;;4963041;28;20045;-77
2023/11/23 00:26:13;;;;;;;66.53;34.42;;;7.60;99.90;;;;;;4999819;28;20045;-82
2023/11/23 00:28:45;;;;;;;69.82;33.67;;;7.50;99.90;;;;;;4987706;28;20038;-73
2023/11/23 00:31:11;;;;;;;82.55;39.10;;;7.60;99.90;;;;;;4980106;28;20042;-74
2023/11/23 00:33:37;;;;;;;94.57;43.55;;;7.60;99.90;;;;;;4984322;28;20489;-79
2023/11/23 00:36:04;;;;;;;84.72;40.13;;;7.60;99.90;;;;;;4983719;28;20034;-78
2023/11/23 00:38:30;;;;;;;67.50;35.47;;;7.60;99.90;;;;;;4984496;28;20033;-82
2023/11/23 00:41:01;;;;;;;87.80;42.50;;;7.60;99.90;;;;;;4985754;28;20440;-78
2023/11/23 00:43:27;;;;;;;73.55;39.35;;;7.70;99.90;;;;;;4980377;28;20068;-78
2023/11/23 00:45:54;;;;;;;91.78;44.60;;;7.70;99.90;;;;;;4953131;28;20037;-80
2023/11/23 00:48:20;;;;;;;101.40;47.95;;;7.70;99.90;;;;;;4969521;28;20049;-78
2023/11/23 00:50:46;;;;;;;80.97;41.85;;;7.70;99.90;;;;;;4971120;28;20496;-78
2023/11/23 00:53:12;;;;;;;97.43;46.90;;;7.80;99.90;;;;;;4961350;28;20038;-77
2023/11/23 00:55:39;;;;;;;99.68;48.42;;;7.80;99.90;;;;;;4971513;28;20044;-81
2023/11/23 00:58:05;;;;;;;87.50;45.00;;;7.80;99.90;;;;;;4989609;28;20389;-76
2023/11/23 01:00:31;;;;;;;86.18;44.35;;;7.80;99.90;;;;;;4986502;28;21173;-80
2023/11/23 01:02:58;;;;;;;84.93;45.85;;;7.80;99.90;;;;;;4967903;28;20045;-81
2023/11/23 01:05:26;;;;;;;111.68;51.45;;;7.80;99.90;;;;;;4987697;28;20034;-78
2023/11/23 01:07:52;;;;;;;93.50;46.08;;;7.80;99.90;;;;;;4986619;28;20038;-78
2023/11/23 01:10:19;;;;;;;87.70;44.58;;;7.90;99.90;;;;;;4969304;28;20038;-81
2023/11/23 01:12:45;;;;;;;88.95;46.25;;;7.90;99.90;;;;;;4988995;28;20030;-81
2023/11/23 01:15:12;;;;;;;91.60;47.38;;;7.90;99.90;;;;;;4987783;28;20042;-79
2023/11/23 01:17:39;;;;;;;80.70;43.22;;;7.90;99.90;;;;;;4986580;28;20036;-78
2023/11/23 01:20:07;;;;;;;85.93;44.83;;;8.00;99.90;;;;;;4987765;28;20512;-80
2023/11/23 01:22:33;;;;;;;78.40;40.60;;;8.00;99.90;;;;;;4988806;28;20046;-76
2023/11/23 01:25:00;;;;;;;83.05;44.17;;;8.00;99.90;;;;;;5004024;28;20038;-75
2023/11/23 01:27:26;;;;;;;83.40;43.67;;;8.00;99.90;;;;;;4977258;28;20046;-79
2023/11/23 01:29:53;;;;;;;125.47;54.30;;;8.00;99.90;;;;;;4997097;28;20045;-76
2023/11/23 01:32:19;;;;;;;97.38;50.35;;;8.10;99.90;;;;;;4971830;28;20071;-81
2023/11/23 01:34:45;;;;;;;89.85;47.25;;;8.00;99.90;;;;;;4987036;28;20034;-77
2023/11/23 01:37:12;;;;;;;90.43;48.28;;;8.00;99.90;;;;;;4983763;28;20022;-74
2023/11/23 01:39:38;;;;;;;90.10;47.55;;;8.10;99.90;;;;;;4985193;28;20046;-80
2023/11/23 01:42:04;;;;;;;92.20;47.28;;;8.10;99.90;;;;;;4969198;28;20053;-75
2023/11/23 01:44:31;;;;;;;78.70;43.30;;;8.10;99.90;;;;;;4987681;28;20026;-78
2023/11/23 01:46:58;;;;;;;90.30;44.92;;;8.10;99.90;;;;;;4965355;28;20053;-73
2023/11/23 01:49:25;;;;;;;92.63;49.95;;;8.20;99.90;;;;;;4969019;28;21201;-78
2023/11/23 01:51:52;;;;;;;88.03;49.10;;;8.20;99.90;;;;;;4990673;28;21113;-80
2023/11/23 01:54:18;;;;;;;86.55;50.13;;;8.20;99.90;;;;;;4993872;28;20034;-81
2023/11/23 01:56:50;;;;;;;77.57;43.83;;;8.20;99.90;;;;;;4978975;28;20469;-80
2023/11/23 01:59:16;;;;;;;94.53;47.28;;;8.30;99.90;;;;;;5007148;28;20588;-80
2023/11/23 02:01:43;;;;;;;80.85;45.88;;;8.30;99.90;;;;;;4973863;28;20038;-79
2023/11/23 02:04:10;;;;;;;76.45;42.47;;;8.30;99.90;;;;;;4993398;28;20017;-83
2023/11/23 02:06:37;;;;;;;73.03;40.60;;;8.40;99.90;;;;;;4975101;28;20062;-81
2023/11/23 02:09:04;;;;;;;81.63;43.47;;;8.40;99.90;;;;;;4973802;28;20048;-79
2023/11/23 02:11:31;;;;;;;82.22;44.83;;;8.40;99.90;;;;;;4975414;28;20057;-79
2023/11/23 02:14:00;;;;;;;82.05;43.55;;;8.40;99.90;;;;;;4950946;28;20049;-80
2023/11/23 02:16:27;;;;;;;79.78;46.42;;;8.50;99.90;;;;;;4962391;28;20392;-82
2023/11/23 02:18:54;;;;;;;87.88;45.75;;;8.50;99.90;;;;;;4990077;28;20039;-79
2023/11/23 02:21:20;;;;;;;85.20;45.70;;;8.50;99.90;;;;;;4973767;28;20038;-81
2023/11/23 02:23:46;;;;;;;76.50;42.55;;;8.50;99.90;;;;;;4988880;28;20648;-82
2023/11/23 02:26:13;;;;;;;92.00;47.42;;;8.50;99.90;;;;;;4967820;28;20761;-81
2023/11/23 02:28:39;;;;;;;79.70;43.97;;;8.60;99.90;;;;;;4976893;28;20042;-82
2023/11/23 02:31:05;;;;;;;79.57;44.17;;;8.60;99.90;;;;;;5004255;28;20506;-80
2023/11/23 02:33:32;;;;;;;71.35;38.80;;;8.70;99.90;;;;;;4986640;28;20483;-76
2023/11/23 02:35:58;;;;;;;78.90;45.10;;;8.70;99.90;;;;;;4990891;28;20033;-75
2023/11/23 02:38:24;;;;;;;75.90;43.33;;;8.70;99.90;;;;;;4990041;28;20034;-75
2023/11/23 02:40:51;;;;;;;74.97;42.72;;;8.70;99.90;;;;;;4973470;28;20392;-78
2023/11/23 02:43:17;;;;;;;73.18;42.67;;;8.70;99.90;;;;;;4990050;28;20030;-82
2023/11/23 02:45:45;;;;;;;86.80;48.20;;;8.80;99.90;;;;;;4974034;28;20507;-77
2023/11/23 02:48:12;;;;;;;79.95;44.83;;;8.80;99.90;;;;;;4986103;28;20060;-81
2023/11/23 02:50:38;;;;;;;81.13;43.67;;;8.80;99.90;;;;;;4989931;28;20480;-81
2023/11/23 02:53:04;;;;;;;88.47;48.55;;;8.90;99.90;;;;;;4990899;28;20026;-74
2023/11/23 02:55:31;;;;;;;74.38;43.75;;;8.90;99.90;;;;;;5007547;28;20027;-79
2023/11/23 02:57:57;;;;;;;87.35;48.22;;;8.90;99.90;;;;;;4991511;28;20460;-81
2023/11/23 03:00:23;;;;;;;95.05;50.42;;;8.90;99.90;;;;;;4976003;28;20045;-81
2023/11/23 03:02:50;;;;;;;87.18;48.38;;;8.90;99.90;;;;;;4982464;28;20046;-80
2023/11/23 03:05:16;;;;;;;79.88;46.00;;;9.00;99.90;;;;;;5003887;28;20048;-74
2023/11/23 03:07:43;;;;;;;65.07;41.20;;;9.00;99.90;;;;;;4990687;28;20032;-80
2023/11/23 03:10:09;;;;;;;62.90;40.38;;;9.00;99.90;;;;;;5004994;28;20408;-80
2023/11/23 03:12:36;;;;;;;80.70;47.35;;;9.00;99.90;;;;;;4972988;28;20034;-81
2023/11/23 03:15:02;;;;;;;72.22;43.00;;;9.00;99.90;;;;;;4974421;28;20030;-83
2023/11/23 03:17:29;;;;;;;68.18;40.65;;;9.00;99.90;;;;;;4990684;28;20044;-81
2023/11/23 03:19:55;;;;;;;97.30;51.03;;;9.10;99.90;;;;;;5005473;28;20042;-78
2023/11/23 03:22:22;;;;;;;72.05;42.00;;;9.10;99.90;;;;;;4950394;28;20052;-81
2023/11/23 03:24:51;;;;;;;60.47;36.88;;;9.10;99.90;;;;;;4992783;28;20033;-74
2023/11/23 03:27:17;;;;;;;67.07;38.70;;;9.10;99.90;;;;;;4998050;28;20403;-75
2023/11/23 03:29:44;;;;;;;71.30;43.10;;;9.10;99.90;;;;;;4995759;28;20479;-82
2023/11/23 03:32:10;;;;;;;76.05;39.90;;;9.10;99.90;;;;;;4988391;28;20037;-82
2023/11/23 03:34:36;;;;;;;72.97;41.17;;;9.20;99.90;;;;;;4986725;28;20516;-79
2023/11/23 03:37:03;;;;;;;74.85;43.38;;;9.20;99.90;;;;;;4987571;28;20042;-78
2023/11/23 03:39:30;;;;;;;74.43;44.83;;;9.20;99.90;;;;;;4978543;28;20440;-78
2023/11/23 03:41:57;;;;;;;68.47;42.35;;;9.20;99.90;;;;;;4950955;28;20543;-80
2023/11/23 03:44:23;;;;;;;57.20;38.33;;;9.20;99.90;;;;;;4976065;28;20288;-80
2023/11/23 03:46:49;;;;;;;70.63;42.10;;;9.30;99.90;;;;;;4990170;28;20034;-75
2023/11/23 03:49:15;;;;;;;69.57;42.08;;;9.30;99.90;;;;;;4973296;28;20041;-77
2023/11/23 03:51:42;;;;;;;63.30;38.90;;;9.30;99.90;;;;;;4990687;28;20026;-80
2023/11/23 03:54:08;;;;;;;68.65;40.65;;;9.30;99.90;;;;;;4988532;28;20033;-75
2023/11/23 03:56:37;;;;;;;64.35;38.15;;;9.30;99.90;;;;;;4966582;28;20057;-79
2023/11/23 03:59:04;;;;;;;72.13;44.97;;;9.40;99.90;;;;;;4984585;28;20041;-80
2023/11/23 04:01:31;;;;;;;69.88;41.58;;;9.30;99.90;;;;;;4956738;28;20034;-79
2023/11/23 04:03:57;;;;;;;72.18;42.35;;;9.40;99.90;;;;;;5000276;28;20034;-78
2023/11/23 04:06:23;;;;;;;67.50;43.05;;;9.40;99.90;;;;;;4992543;28;20034;-79
2023/11/23 04:08:50;;;;;;;55.80;37.47;;;9.40;99.90;;;;;;4988926;28;20018;-82
2023/11/23 04:11:16;;;;;;;62.67;38.42;;;9.40;99.90;;;;;;4988092;28;20096;-75
2023/11/23 04:13:43;;;;;;;57.55;37.78;;;9.40;99.90;;;;;;4990468;28;20038;-80
2023/11/23 04:16:09;;;;;;;70.65;40.03;;;9.40;99.90;;;;;;4989993;28;20041;-81
2023/11/23 04:18:35;;;;;;;75.75;42.55;;;9.40;99.90;;;;;;4970603;28;20496;-79
2023/11/23 04:21:02;;;;;;;66.60;40.38;;;9.40;99.90;;;;;;4991267;28;20047;-81
2023/11/23 04:23:28;;;;;;;60.55;38.85;;;9.40;99.90;;;;;;4987323;28;20022;-83
2023/11/23 04:25:54;;;;;;;60.28;37.67;;;9.40;99.90;;;;;;4988871;28;20041;-76
2023/11/23 04:28:20;;;;;;;62.97;38.42;;;9.50;99.90;;;;;;4987926;28;20590;-82
2023/11/23 04:30:47;;;;;;;59.13;35.20;;;9.50;99.90;;;;;;4987384;28;20064;-82
2023/11/23 04:33:14;;;;;;;54.92;36.42;;;9.50;99.90;;;;;;4984275;28;20033;-82
2023/11/23 04:35:40;;;;;;;62.70;38.10;;;9.50;99.90;;;;;;4969239;28;20046;-82
2023/11/23 04:38:06;;;;;;;57.38;35.45;;;9.50;99.90;;;;;;4964972;28;20214;-81
2023/11/23 04:40:32;;;;;;;55.28;35.65;;;9.50;99.90;;;;;;4991540;28;20033;-78
2023/11/23 04:42:59;;;;;;;56.08;34.75;;;9.40;99.90;;;;;;4992526;28;20032;-80
2023/11/23 04:45:25;;;;;;;54.10;33.28;;;9.50;99.90;;;;;;4986832;28;20064;-80
2023/11/23 04:47:52;;;;;;;62.72;36.05;;;9.50;99.90;;;;;;4950468;28;20033;-80
2023/11/23 04:50:18;;;;;;;47.47;30.73;;;9.50;99.90;;;;;;4965296;28;20052;-75
2023/11/23 04:52:45;;;;;;;63.40;38.22;;;9.50;99.90;;;;;;4993031;28;20041;-83
2023/11/23 04:55:11;;;;;;;57.65;36.72;;;9.50;99.90;;;;;;4987669;28;20034;-82
2023/11/23 04:57:37;;;;;;;58.78;35.10;;;9.50;99.90;;;;;;4971135;28;20018;-79
2023/11/23 05:00:05;;;;;;;61.30;36.05;;;9.50;99.90;;;;;;5002286;28;20045;-75
2023/11/23 05:02:32;;;;;;;52.88;31.75;;;9.50;99.90;;;;;;4983039;28;20046;-80
2023/11/23 05:04:58;;;;;;;55.72;31.80;;;9.60;99.90;;;;;;4988281;28;20026;-78
2023/11/23 05:07:25;;;;;;;47.65;30.27;;;9.60;99.90;;;;;;4990463;28;20485;-79
2023/11/23 05:09:51;;;;;;;53.30;30.58;;;9.60;99.90;;;;;;4975006;28;20040;-79
2023/11/23 05:12:18;;;;;;;54.55;31.85;;;9.60;99.90;;;;;;4987769;28;20045;-82
2023/11/23 05:14:44;;;;;;;46.20;28.88;;;9.60;99.90;;;;;;4991597;28;20030;-78
2023/11/23 05:17:11;;;;;;;44.03;28.67;;;9.60;99.90;;;;;;4990087;28;20035;-80
2023/11/23 05:19:37;;;;;;;52.45;30.85;;;9.60;99.90;;;;;;4990978;28;20254;-74
2023/11/23 05:22:03;;;;;;;42.08;26.52;;;9.60;99.90;;;;;;4971362;28;20033;-82
2023/11/23 05:24:29;;;;;;;48.40;28.98;;;9.60;99.90;;;;;;4994281;28;20037;-83
2023/11/23 05:26:56;;;;;;;47.80;28.38;;;9.60;99.90;;;;;;4989457;28;20053;-82
2023/11/23 05:29:22;;;;;;;43.85;26.45;;;9.60;99.90;;;;;;4986255;28;20501;-80
2023/11/23 05:31:48;;;;;;;40.95;26.75;;;9.60;99.90;;;;;;4983382;28;20034;-74
2023/11/23 05:34:15;;;;;;;44.53;25.08;;;9.60;99.90;;;;;;4955149;28;20046;-81
2023/11/23 05:36:41;;;;;;;37.30;23.45;;;9.60;99.90;;;;;;4988731;28;20041;-77
2023/11/23 05:39:10;;;;;;;40.53;25.13;;;9.70;99.90;;;;;;4990489;28;20041;-79
2023/11/23 05:41:36;;;;;;;38.83;23.05;;;9.70;99.90;;;;;;4990289;28;20444;-80
2023/11/23 05:44:03;;;;;;;43.80;26.25;;;9.60;99.90;;;;;;4987488;28;20042;-75
2023/11/23 05:46:30;;;;;;;40.55;24.38;;;9.60;99.90;;;;;;4990655;28;20029;-83
2023/11/23 05:48:56;;;;;;;38.83;23.67;;;9.60;99.90;;;;;;4990999;28;20470;-83
2023/11/23 05:51:22;;;;;;;43.00;23.77;;;9.60;99.90;;;;;;4989102;28;20046;-81
2023/11/23 05:53:49;;;;;;;39.08;22.92;;;9.60;99.90;;;;;;4991987;28;20038;-82
2023/11/23 05:56:16;;;;;;;36.10;22.67;;;9.70;99.90;;;;;;4971875;28;20033;-81
2023/11/23 05:58:42;;;;;;;43.45;25.80;;;9.70;99.90;;;;;;4988314;28;20025;-84
2023/11/23 06:01:09;;;;;;;40.35;24.88;;;9.70;99.90;;;;;;4990694;28;20041;-77
2023/11/23 06:03:37;;;;;;;39.63;25.15;;;9.70;99.90;;;;;;4983830;28;20041;-84
2023/11/23 06:06:03;;;;;;;61.20;26.95;;;9.70;99.90;;;;;;4990217;28;20057;-83
2023/11/23 06:08:30;;;;;;;47.42;26.98;;;9.70;99.90;;;;;;4988218;28;20552;-75
2023/11/23 06:10:57;;;;;;;33.65;22.17;;;9.80;99.90;;;;;;5005734;28;20033;-80
2023/11/23 06:13:24;;;;;;;50.08;27.67;;;9.80;99.90;;;;;;4988837;28;20025;-80
2023/11/23 06:15:50;;;;;;;44.33;23.88;;;9.80;99.90;;;;;;4987002;28;20030;-79
2023/11/23 06:18:17;;;;;;;43.08;24.08;;;9.70;99.90;;;;;;4994236;28;20030;-77
2023/11/23 06:20:43;;;;;;;41.80;23.17;;;9.80;99.90;;;;;;4989828;28;22955;-76
2023/11/23 06:23:10;;;;;;;42.78;26.92;;;9.70;99.90;;;;;;4989662;28;20041;-82
2023/11/23 06:25:36;;;;;;;41.60;26.08;;;9.70;99.90;;;;;;4976108;28;20480;-84
2023/11/23 06:28:03;;;;;;;40.90;24.58;;;9.70;99.90;;;;;;4974920;28;20339;-78
2023/11/23 06:30:29;;;;;;;49.45;29.58;;;9.70;99.90;;;;;;4993294;28;20018;-84
2023/11/23 06:32:55;;;;;;;39.92;25.58;;;9.80;99.90;;;;;;4976272;28;20048;-81
2023/11/23 06:35:22;;;;;;;41.90;27.05;;;9.80;99.90;;;;;;4987251;28;20030;-80
2023/11/23 06:37:48;;;;;;;37.85;24.77;;;9.80;99.90;;;;;;4989181;28;20034;-77
2023/11/23 06:40:17;;;;;;;45.20;29.00;;;9.80;99.90;;;;;;4972539;28;20037;-77
2023/11/23 06:42:43;;;;;;;47.78;29.27;;;9.80;99.90;;;;;;4989415;28;20042;-75
2023/11/23 06:45:13;;;;;;;42.63;28.75;;;9.90;99.90;;;;;;4989171;28;20032;-76
2023/11/23 06:47:39;;;;;;;53.25;31.27;;;9.80;99.90;;;;;;4992804;28;20255;-76
2023/11/23 06:50:07;;;;;;;51.47;31.20;;;9.80;99.90;;;;;;4994498;28;20469;-84
2023/11/23 06:52:33;;;;;;;48.97;30.83;;;9.80;99.90;;;;;;4967330;28;20880;-80
2023/11/23 06:55:01;;;;;;;39.22;24.48;;;9.90;99.90;;;;;;4980533;28;20417;-78
2023/11/23 06:57:27;;;;;;;49.05;31.17;;;9.80;99.90;;;;;;4992716;28;20041;-78
2023/11/23 06:59:54;;;;;;;39.08;27.73;;;9.90;99.90;;;;;;4992661;28;20386;-79
2023/11/23 07:02:20;;;;;;;39.33;26.25;;;9.90;99.90;;;;;;4988622;28;20025;-81
2023/11/23 07:04:46;;;;;;;41.30;28.20;;;9.90;99.90;;;;;;4992158;28;20038;-82
2023/11/23 07:07:12;;;;;;;51.90;31.33;;;10.00;99.90;;;;;;4976005;28;20022;-82
2023/11/23 07:09:40;;;;;;;62.40;33.85;;;10.00;99.90;;;;;;4989102;28;20041;-79
2023/11/23 07:12:06;;;;;;;45.97;28.45;;;10.00;99.90;;;;;;4974215;28;20377;-82
2023/11/23 07:14:33;;;;;;;37.55;26.90;;;10.00;99.90;;;;;;4989502;28;20042;-80
2023/11/23 07:16:59;;;;;;;49.67;30.85;;;10.00;99.90;;;;;;4991589;28;20046;-79
2023/11/23 07:19:26;;;;;;;45.00;29.58;;;10.00;99.90;;;;;;4994171;28;20404;-76
2023/11/23 07:21:52;;;;;;;48.25;29.85;;;10.00;99.90;;;;;;4977137;28;20037;-80
2023/11/23 07:24:19;;;;;;;50.80;28.92;;;10.00;99.90;;;;;;4978760;28;20037;-79
2023/11/23 07:26:45;;;;;;;46.40;29.20;;;10.00;99.90;;;;;;4992545;28;20021;-76
2023/11/23 07:29:12;;;;;;;47.60;29.85;;;10.00;99.90;;;;;;4975670;28;20484;-77
2023/11/23 07:31:38;;;;;;;46.38;28.05;;;10.00;99.90;;;;;;4991799;28;20033;-81
2023/11/23 07:34:04;;;;;;;47.03;28.42;;;10.00;99.90;;;;;;4988543;28;20035;-78
2023/11/23 07:36:32;;;;;;;42.58;27.10;;;10.00;99.90;;;;;;4990171;28;20634;-82
2023/11/23 07:38:59;;;;;;;47.55;27.50;;;10.00;99.90;;;;;;4975458;28;20069;-79
2023/11/23 07:41:25;;;;;;;42.22;25.90;;;10.10;99.90;;;;;;4976857;28;20026;-73
2023/11/23 07:43:52;;;;;;;48.55;27.50;;;10.10;99.90;;;;;;4972528;28;20030;-80
2023/11/23 07:46:19;;;;;;;40.45;25.48;;;10.00;99.90;;;;;;4991143;28;20034;-78
2023/11/23 07:48:50;;;;;;;45.08;25.70;;;10.10;99.90;;;;;;4965442;28;20034;-81
2023/11/23 07:51:17;;;;;;;38.38;25.15;;;10.00;99.90;;;;;;4992445;28;20042;-78
2023/11/23 07:53:44;;;;;;;44.70;26.10;;;10.10;99.90;;;;;;4978498;28;20018;-79
2023/11/23 07:56:10;;;;;;;38.83;24.85;;;10.10;99.90;;;;;;4995289;28;20034;-75
2023/11/23 07:58:36;;;;;;;32.10;22.55;;;10.10;99.90;;;;;;4993051;28;20026;-82
2023/11/23 08:01:03;;;;;;;36.83;23.77;;;10.10;99.90;;;;;;4974276;28;20040;-80
2023/11/23 08:03:29;;;;;;;34.55;22.50;;;10.10;99.90;;;;;;4992611;28;20026;-82
2023/11/23 08:05:55;;;;;;;35.15;24.17;;;10.20;99.90;;;;;;4994254;28;20890;-79
2023/11/23 08:08:22;;;;;;;37.97;23.33;;;10.20;99.90;;;;;;4992192;28;20785;-78
2023/11/23 08:10:48;;;;;;;40.40;25.63;;;10.20;99.90;;;;;;4978945;28;20049;-83
2023/11/23 08:13:16;;;;;;;31.23;21.85;;;10.30;99.90;;;;;;4995743;28;20291;-78
2023/11/23 08:15:43;;;;;;;34.70;21.55;;;10.30;99.90;;;;;;4970363;28;20037;-83
2023/11/23 08:18:09;;;;;;;31.83;22.48;;;10.30;99.90;;;;;;4993005;28;20034;-83
2023/11/23 08:20:36;;;;;;;33.72;22.17;;;10.30;99.90;;;;;;4990955;28;20040;-81
2023/11/23 08:23:03;;;;;;;33.63;22.88;;;10.30;99.90;;;;;;4992046;28;20045;-75
2023/11/23 08:25:29;;;;;;;37.15;24.65;;;10.30;99.90;;;;;;4996256;28;20315;-80
2023/11/23 08:27:57;;;;;;;33.42;21.95;;;10.40;99.90;;;;;;4975774;28;20477;-80
2023/11/23 08:30:23;;;;;;;31.42;21.10;;;10.40;99.90;;;;;;4976894;28;20042;-80
2023/11/23 08:32:50;;;;;;;30.75;21.27;;;10.40;99.90;;;;;;4990472;28;20421;-77
2023/11/23 08:35:16;;;;;;;35.90;21.65;;;10.40;99.90;;;;;;4993918;28;20049;-82
2023/11/23 08:37:42;;;;;;;32.30;20.38;;;10.40;99.90;;;;;;4991663;28;20034;-79
2023/11/23 08:40:09;;;;;;;37.58;23.98;;;10.40;99.90;;;;;;4995486;28;20048;-80
2023/11/23 08:42:36;;;;;;;34.63;23.52;;;10.40;99.90;;;;;;4956650;28;20041;-80
2023/11/23 08:45:02;;;;;;;40.83;25.00;;;10.40;99.90;;;;;;4995826;28;20017;-79
2023/11/23 08:47:29;;;;;;;30.20;21.40;;;10.40;99.90;;;;;;4993326;28;20042;-79
2023/11/23 08:49:55;;;;;;;38.80;24.90;;;10.40;99.90;;;;;;4994256;28;20418;-84
2023/11/23 08:52:22;;;;;;;38.13;24.95;;;10.40;99.90;;;;;;4969757;28;20038;-79
2023/11/23 08:54:48;;;;;;;33.33;23.23;;;10.40;99.90;;;;;;4974285;28;20049;-78
2023/11/23 08:57:15;;;;;;;35.58;25.15;;;10.50;99.90;;;;;;4976478;28;20034;-78
2023/11/23 08:59:41;;;;;;;33.40;23.35;;;10.50;99.90;;;;;;4988607;28;20030;-82
2023/11/23 09:02:09;;;;;;;38.70;24.15;;;10.50;99.90;;;;;;4972734;28;20037;-82
2023/11/23 09:04:36;;;;;;;41.33;25.17;;;10.50;99.90;;;;;;5006057;28;20056;-79
2023/11/23 09:07:03;;;;;;;33.10;22.92;;;10.60;99.90;;;;;;4992500;28;20042;-79
2023/11/23 09:09:29;;;;;;;44.30;27.50;;;10.60;99.90;;;;;;4991559;28;20041;-82
2023/11/23 09:11:56;;;;;;;33.70;23.60;;;10.60;99.90;;;;;;4988381;28;20030;-74
2023/11/23 09:14:22;;;;;;;36.20;22.83;;;10.60;99.90;;;;;;4995330;28;20026;-80
2023/11/23 09:16:48;;;;;;;33.65;23.63;;;10.70;99.90;;;;;;4962764;28;20038;-80
2023/11/23 09:19:15;;;;;;;35.13;23.58;;;10.70;99.90;;;;;;4997655;28;20038;-79
2023/11/23 09:21:41;;;;;;;41.63;23.67;;;10.80;99.90;;;;;;4983413;28;20057;-80
2023/11/23 09:24:08;;;;;;;27.92;21.00;;;10.80;99.90;;;;;;4992075;28;20632;-75
2023/11/23 09:26:35;;;;;;;34.40;21.95;;;10.80;99.90;;;;;;5009835;28;20034;-78
2023/11/23 09:29:03;;;;;;;32.80;21.95;;;10.90;99.90;;;;;;4992666;28;20026;-81
2023/11/23 09:31:31;;;;;;;31.48;22.15;;;10.90;99.90;;;;;;4992008;28;20044;-78
2023/11/23 09:33:57;;;;;;;36.58;22.38;;;11.00;99.90;;;;;;5003686;28;20034;-81
2023/11/23 09:36:24;;;;;;;33.70;22.75;;;11.10;99.90;;;;;;4994769;28;20025;-79
2023/11/23 09:38:51;;;;;;;32.33;22.02;;;11.10;99.90;;;;;;4972979;28;20489;-76
2023/11/23 09:41:21;;;;;;;30.10;20.85;;;11.10;99.90;;;;;;4992814;28;20895;-83
2023/11/23 09:43:48;;;;;;;26.60;20.75;;;11.20;99.90;;;;;;4992775;28;20030;-79
2023/11/23 09:46:15;;;;;;;31.48;20.25;;;11.20;99.90;;;;;;4959825;28;20046;-81
2023/11/23 09:48:43;;;;;;;30.48;20.17;;;11.20;99.90;;;;;;4993495;28;20041;-81
2023/11/23 09:51:10;;;;;;;30.27;20.48;;;11.30;99.90;;;;;;4977407;28;20050;-76
2023/11/23 09:53:37;;;;;;;23.15;17.77;;;11.30;99.90;;;;;;4993540;28;20026;-80
2023/11/23 09:56:04;;;;;;;28.15;18.63;;;11.30;99.90;;;;;;4960593;28;20053;-81
2023/11/23 09:58:31;;;;;;;29.05;18.90;;;11.30;99.90;;;;;;4970232;28;21029;-75
2023/11/23 10:01:02;;;;;;;25.77;18.85;;;11.30;99.90;;;;;;4991189;28;20072;-77
2023/11/23 10:03:33;;;;;;;24.52;17.65;;;11.40;99.90;;;;;;4991615;28;20049;-82
2023/11/23 10:06:01;;;;;;;22.33;14.02;;;11.40;99.90;;;;;;4977069;28;20041;-77
2023/11/23 10:08:27;;;;;;;30.73;19.35;;;11.40;99.90;;;;;;4973165;28;20366;-78
2023/11/23 10:10:56;;;;;;;24.80;17.25;;;11.50;99.90;;;;;;4975188;28;20033;-79
2023/11/23 10:13:22;;;;;;;29.90;18.90;;;11.50;99.90;;;;;;4995646;28;20050;-77
2023/11/23 10:15:49;;;;;;;25.48;19.17;;;11.60;99.90;;;;;;4998225;28;20032;-78
2023/11/23 10:18:17;;;;;;;27.20;19.92;;;11.70;99.90;;;;;;4971838;28;20029;-80
2023/11/23 10:20:47;;;;;;;25.80;20.42;;;11.80;99.90;;;;;;4996744;28;20041;-79
2023/11/23 10:23:13;;;;;;;22.85;15.90;;;11.90;99.90;;;;;;4992128;28;20046;-79
2023/11/23 10:25:41;;;;;;;25.17;18.15;;;11.90;99.90;;;;;;4996413;28;20014;-81
2023/11/23 10:28:08;;;;;;;21.42;16.52;;;11.90;99.90;;;;;;4994032;28;20022;-76
2023/11/23 10:30:39;;;;;;;24.10;15.00;;;11.90;99.90;;;;;;4995859;28;20041;-79
2023/11/23 10:33:09;;;;;;;19.33;14.20;;;11.90;99.90;;;;;;4961792;28;20045;-80
2023/11/23 10:35:44;;;;;;;22.88;14.57;;;11.90;99.90;;;;;;4979292;28;20037;-77
2023/11/23 10:38:13;;;;;;;19.48;13.60;;;11.90;99.90;;;;;;4991974;28;20061;-78
2023/11/23 10:40:39;;;;;;;17.30;12.15;;;11.90;99.90;;;;;;4957383;28;20057;-76
2023/11/23 10:43:09;;;;;;;15.35;10.98;;;11.90;99.90;;;;;;4993787;28;20045;-77
2023/11/23 10:45:36;;;;;;;16.92;12.35;;;11.90;99.90;;;;;;4968163;28;20583;-79
2023/11/23 10:48:03;;;;;;;18.48;12.55;;;12.00;99.90;;;;;;4994569;28;20042;-78
2023/11/23 10:50:31;;;;;;;18.52;11.43;;;12.10;99.90;;;;;;4980019;28;20034;-75
2023/11/23 10:53:01;;;;;;;13.60;10.27;;;12.10;99.90;;;;;;4995577;28;20037;-76
2023/11/23 10:55:27;;;;;;;17.73;11.48;;;12.20;99.90;;;;;;4970470;28;20037;-80
2023/11/23 10:58:10;;;;;;;14.43;10.02;;;12.20;99.90;;;;;;4993558;28;20295;-79
2023/11/23 11:00:39;;;;;;;14.18;8.85;;;12.20;99.90;;;;;;4995806;28;20053;-82
2023/11/23 11:03:08;;;;;;;14.27;9.23;;;12.20;99.90;;;;;;4993165;28;20495;-80
2023/11/23 11:05:36;;;;;;;19.90;10.10;;;12.10;99.90;;;;;;4994525;28;20052;-82
2023/11/23 11:08:07;;;;;;;16.92;10.48;;;12.10;99.90;;;;;;4996641;28;20041;-79
2023/11/23 11:10:55;;;;;;;20.85;10.10;;;12.20;99.90;;;;;;4978574;28;20030;-74
2023/11/23 11:13:23;;;;;;;14.50;8.90;;;12.20;99.90;;;;;;4994415;28;20057;-79
2023/11/23 11:15:56;;;;;;;14.65;9.75;;;12.20;99.90;;;;;;4997684;28;20531;-80
2023/11/23 11:18:27;;;;;;;17.13;9.13;;;12.20;99.90;;;;;;4981865;28;20080;-80
2023/11/23 11:21:07;;;;;;;13.77;8.63;;;12.20;99.90;;;;;;4979208;28;20044;-80
2023/11/23 11:23:40;;;;;;;13.40;7.60;;;12.20;99.90;;;;;;4969903;28;20037;-75
2023/11/23 11:26:11;;;;;;;13.63;6.53;;;12.20;99.90;;;;;;4976555;28;20532;-79
2023/11/23 11:28:39;;;;;;;13.63;6.88;;;12.20;99.90;;;;;;4987398;28;20049;-79
2023/11/23 11:31:07;;;;;;;12.88;6.32;;;12.20;99.90;;;;;;4976837;28;20034;-77
2023/11/23 11:33:35;;;;;;;11.43;5.82;;;12.20;99.90;;;;;;4990886;28;20038;-80
2023/11/23 11:36:02;;;;;;;15.02;6.32;;;12.20;99.90;;;;;;4992457;28;20049;-83
2023/11/23 11:38:28;;;;;;;12.45;5.63;;;12.20;99.90;;;;;;4989007;28;20042;-75
2023/11/23 11:40:58;;;;;;;9.65;5.45;;;12.20;99.90;;;;;;4995193;28;20257;-81
2023/11/23 11:43:26;;;;;;;10.90;6.45;;;12.20;99.90;;;;;;4996292;28;20033;-74
2023/11/23 11:45:53;;;;;;;12.73;7.13;;;12.20;99.90;;;;;;4975282;28;20042;-75
2023/11/23 11:48:19;;;;;;;10.88;7.57;;;12.20;99.90;;;;;;4985790;28;20044;-75
2023/11/23 11:50:57;;;;;;;13.55;7.47;;;12.20;99.90;;;;;;4974954;28;20045;-73
2023/11/23 11:53:23;;;;;;;11.57;6.68;;;12.30;99.90;;;;;;4991282;28;20057;-76
2023/11/23 11:55:52;;;;;;;7.82;5.07;;;12.20;99.90;;;;;;4993067;28;20480;-82
2023/11/23 11:58:20;;;;;;;10.98;5.32;;;12.20;99.90;;;;;;4989722;28;20033;-83
2023/11/23 12:00:47;;;;;;;12.68;5.28;;;12.30;99.90;;;;;;4972707;28;20057;-82
2023/11/23 12:03:14;;;;;;;12.70;5.43;;;12.20;99.90;;;;;;4970847;28;20499;-78
2023/11/23 12:05:41;;;;;;;8.93;5.00;;;12.20;99.90;;;;;;4972621;28;20040;-81
2023/11/23 12:08:08;;;;;;;10.18;4.35;;;12.20;99.90;;;;;;4990146;28;20405;-77
2023/11/23 12:10:42;;;;;;;14.35;5.25;;;12.30;99.90;;;;;;4992452;28;20049;-81
2023/11/23 12:13:16;;;;;;;12.73;5.40;;;12.30;99.90;;;;;;4992766;28;20057;-77
2023/11/23 12:15:43;;;;;;;11.52;5.18;;;12.20;99.90;;;;;;4957651;28;20034;-79
2023/11/23 12:18:14;;;;;;;12.02;4.70;;;12.30;99.90;;;;;;4993411;28;20608;-75
2023/11/23 12:20:41;;;;;;;12.98;5.70;;;12.20;99.90;;;;;;4993270;28;20064;-81
2023/11/23 12:23:08;;;;;;;8.65;4.60;;;12.30;99.90;;;;;;4994779;28;20046;-76
2023/11/23 12:25:35;;;;;;;9.70;4.40;;;12.30;99.90;;;;;;5010229;28;20469;-80
2023/11/23 12:28:02;;;;;;;10.65;4.43;;;12.30;99.90;;;;;;4975578;28;20040;-80
2023/11/23 12:30:29;;;;;;;7.88;3.72;;;12.30;99.90;;;;;;4980486;28;20030;-78
2023/11/23 12:32:58;;;;;;;8.35;3.50;;;12.40;99.90;;;;;;4975559;28;20048;-75